createdAt,value
2017-07-19T00:02:18.197Z,15.60
2017-07-19T00:04:46.606Z,15.60
2017-07-19T00:07:15.011Z,15.60
2017-07-19T00:09:43.450Z,15.60
2017-07-19T00:12:12.543Z,15.50
2017-07-19T00:14:40.977Z,15.50
2017-07-19T00:17:09.421Z,15.40
2017-07-19T00:19:38.606Z,15.20
2017-07-19T00:22:07.020Z,15.20
2017-07-19T00:24:35.461Z,15.20
2017-07-19T00:27:04.404Z,15.20
2017-07-19T00:29:32.819Z,15.20
2017-07-19T00:32:01.253Z,15.20
2017-07-19T00:34:30.429Z,15.20
2017-07-19T00:36:58.841Z,15.20
2017-07-19T00:39:27.260Z,15.30
2017-07-19T00:41:55.669Z,15.30
2017-07-19T00:44:24.078Z,15.30
2017-07-19T00:46:52.502Z,15.20
2017-07-19T00:49:20.939Z,15.10
2017-07-19T00:51:49.350Z,15.00
2017-07-19T00:54:17.764Z,14.90
2017-07-19T00:56:46.177Z,14.80
2017-07-19T00:59:14.598Z,14.80
2017-07-19T01:01:43.026Z,14.80
2017-07-19T01:04:11.425Z,14.80
2017-07-19T01:06:40.601Z,14.70
2017-07-19T01:09:09.022Z,14.70
2017-07-19T01:11:37.450Z,14.70
2017-07-19T01:14:05.868Z,14.60
2017-07-19T01:16:35.065Z,14.60
2017-07-19T01:19:03.462Z,14.50
2017-07-19T01:21:31.863Z,14.50
2017-07-19T01:24:00.309Z,14.50
2017-07-19T01:26:28.719Z,14.40
2017-07-19T01:28:57.155Z,14.40
2017-07-19T01:31:25.600Z,14.50
2017-07-19T01:33:53.996Z,14.50
2017-07-19T01:36:22.397Z,14.40
2017-07-19T01:38:51.070Z,14.40
2017-07-19T01:41:19.482Z,14.40
2017-07-19T01:43:47.878Z,14.40
2017-07-19T01:46:16.302Z,14.40
2017-07-19T01:48:44.712Z,14.50
2017-07-19T01:51:13.122Z,14.50
2017-07-19T01:53:41.555Z,14.50
2017-07-19T01:56:09.965Z,14.60
2017-07-19T01:58:38.387Z,14.60
2017-07-19T02:01:06.811Z,14.70
2017-07-19T02:03:35.223Z,14.70
2017-07-19T02:06:03.624Z,14.70
2017-07-19T02:08:32.049Z,14.80
2017-07-19T02:11:00.455Z,14.80
2017-07-19T02:13:28.882Z,14.80
2017-07-19T02:15:57.313Z,14.90
2017-07-19T02:18:25.717Z,14.90
2017-07-19T02:20:54.898Z,15.00
2017-07-19T02:23:24.275Z,15.00
2017-07-19T02:25:52.681Z,14.90
2017-07-19T02:28:21.076Z,14.90
2017-07-19T02:30:49.509Z,14.90
2017-07-19T02:33:17.913Z,14.90
2017-07-19T02:35:46.325Z,14.80
2017-07-19T02:38:14.761Z,14.80
2017-07-19T02:40:43.167Z,14.60
2017-07-19T02:43:11.585Z,14.50
2017-07-19T02:45:40.005Z,14.40
2017-07-19T02:48:08.418Z,14.40
2017-07-19T02:50:36.814Z,14.40
2017-07-19T02:53:05.258Z,14.40
2017-07-19T02:55:33.673Z,14.40
2017-07-19T02:58:02.081Z,14.30
2017-07-19T03:00:30.562Z,14.20
2017-07-19T03:02:59.017Z,14.20
2017-07-19T03:05:27.482Z,14.10
2017-07-19T03:07:55.938Z,14.10
2017-07-19T03:10:24.345Z,14.10
2017-07-19T03:12:53.164Z,14.00
2017-07-19T03:15:21.597Z,14.00
2017-07-19T03:17:49.993Z,14.00
2017-07-19T03:20:18.402Z,13.90
2017-07-19T03:22:50.081Z,13.90
2017-07-19T03:25:18.495Z,13.90
2017-07-19T03:27:46.906Z,13.90
2017-07-19T03:30:14.990Z,13.80
2017-07-19T03:32:43.398Z,13.80
2017-07-19T03:35:11.806Z,13.70
2017-07-19T03:37:40.224Z,13.70
2017-07-19T03:40:08.627Z,13.70
2017-07-19T03:42:37.046Z,13.70
2017-07-19T03:45:05.469Z,13.60
2017-07-19T03:47:33.877Z,13.60
2017-07-19T03:50:02.293Z,13.70
2017-07-19T03:52:30.721Z,13.80
2017-07-19T03:54:59.161Z,13.90
2017-07-19T03:57:27.653Z,13.90
2017-07-19T03:59:56.114Z,14.00
2017-07-19T04:02:24.553Z,14.00
2017-07-19T04:04:52.966Z,14.20
2017-07-19T04:07:21.385Z,14.30
2017-07-19T04:09:49.825Z,14.40
2017-07-19T04:12:17.922Z,14.50
2017-07-19T04:14:46.334Z,14.60
2017-07-19T04:17:14.781Z,14.70
2017-07-19T04:19:43.195Z,14.90
2017-07-19T04:22:11.606Z,15.10
2017-07-19T04:24:40.036Z,15.20
2017-07-19T04:27:08.455Z,15.50
2017-07-19T04:29:36.871Z,15.80
2017-07-19T04:32:05.297Z,16.00
2017-07-19T04:34:33.710Z,16.30
2017-07-19T04:37:02.119Z,16.50
2017-07-19T04:39:30.562Z,16.70
2017-07-19T04:41:58.966Z,16.90
2017-07-19T04:44:27.383Z,17.10
2017-07-19T04:46:56.856Z,17.60
2017-07-19T04:49:25.272Z,17.60
2017-07-19T04:51:53.703Z,17.70
2017-07-19T04:54:23.402Z,17.80
2017-07-19T04:56:51.705Z,18.00
2017-07-19T04:59:20.164Z,18.10
2017-07-19T05:01:48.642Z,18.20
2017-07-19T05:04:17.949Z,18.30
2017-07-19T05:06:46.425Z,18.40
2017-07-19T05:09:14.874Z,18.60
2017-07-19T05:11:44.794Z,18.90
2017-07-19T05:14:13.993Z,19.00
2017-07-19T05:16:42.432Z,19.00
2017-07-19T05:19:10.842Z,19.10
2017-07-19T05:21:39.257Z,19.10
2017-07-19T05:24:07.797Z,19.00
2017-07-19T05:26:36.250Z,18.90
2017-07-19T05:29:04.704Z,18.90
2017-07-19T05:31:33.191Z,19.10
2017-07-19T05:34:01.642Z,19.20
2017-07-19T05:36:30.056Z,19.30
2017-07-19T05:38:58.469Z,19.50
2017-07-19T05:41:26.869Z,19.70
2017-07-19T05:43:55.278Z,19.80
2017-07-19T05:46:23.714Z,20.00
2017-07-19T05:48:52.112Z,20.40
2017-07-19T05:51:20.526Z,20.80
2017-07-19T05:53:48.969Z,21.20
2017-07-19T05:56:17.394Z,21.70
2017-07-19T05:58:45.802Z,21.90
2017-07-19T06:01:14.237Z,21.90
2017-07-19T06:03:42.655Z,22.20
2017-07-19T06:06:11.070Z,22.50
2017-07-19T06:08:39.503Z,23.00
2017-07-19T06:11:07.916Z,23.40
2017-07-19T06:13:36.331Z,24.00
2017-07-19T06:16:05.020Z,24.70
2017-07-19T06:18:33.432Z,24.70
2017-07-19T06:21:01.843Z,24.50
2017-07-19T06:23:30.272Z,24.30
2017-07-19T06:25:58.678Z,24.90
2017-07-19T06:28:27.098Z,25.40
2017-07-19T06:30:55.528Z,26.00
2017-07-19T06:33:23.948Z,26.50
2017-07-19T06:35:52.424Z,26.80
2017-07-19T06:38:20.997Z,26.80
2017-07-19T06:40:49.436Z,27.20
2017-07-19T06:43:17.521Z,27.50
2017-07-19T06:45:45.984Z,28.20
2017-07-19T06:48:14.429Z,28.90
2017-07-19T06:50:42.857Z,29.40
2017-07-19T06:53:11.711Z,29.40
2017-07-19T06:55:40.135Z,29.30
2017-07-19T06:58:08.582Z,30.10
2017-07-19T07:00:37.018Z,30.20
2017-07-19T07:03:05.531Z,30.10
2017-07-19T07:05:34.582Z,29.90
2017-07-19T07:08:03.054Z,29.80
2017-07-19T07:10:31.485Z,29.70
2017-07-19T07:12:59.963Z,30.00
2017-07-19T07:15:28.482Z,30.40
2017-07-19T07:17:56.904Z,30.50
2017-07-19T07:20:25.361Z,30.70
2017-07-19T07:22:53.536Z,31.00
2017-07-19T07:25:21.977Z,31.90
2017-07-19T07:27:51.085Z,32.30
2017-07-19T07:30:19.542Z,32.40
2017-07-19T07:32:48.346Z,32.90
2017-07-19T07:35:16.681Z,33.40
2017-07-19T07:37:45.815Z,33.50
2017-07-19T07:40:14.961Z,33.80
2017-07-19T07:45:19.105Z,33.40
2017-07-19T07:47:58.580Z,33.60
2017-07-19T07:50:27.891Z,33.70
2017-07-19T07:52:58.993Z,33.90
2017-07-19T07:55:27.275Z,34.00
2017-07-19T07:57:56.445Z,33.90
2017-07-19T08:00:26.665Z,34.40
2017-07-19T08:02:55.228Z,35.10
2017-07-19T08:05:27.585Z,34.90
2017-07-19T08:07:57.187Z,34.90
2017-07-19T08:10:28.994Z,35.30
2017-07-19T08:13:01.466Z,34.90
2017-07-19T08:15:30.167Z,34.80
2017-07-19T08:17:58.914Z,36.00
2017-07-19T08:20:31.463Z,35.90
2017-07-19T08:23:01.839Z,35.90
2017-07-19T08:25:32.167Z,35.30
2017-07-19T08:30:42.479Z,34.70
2017-07-19T08:33:11.711Z,34.50
2017-07-19T08:35:42.258Z,34.10
2017-07-19T08:38:14.872Z,34.10
2017-07-19T08:46:42.361Z,35.50
2017-07-19T08:55:19.969Z,35.80
2017-07-19T08:57:49.718Z,36.10
2017-07-19T09:19:58.784Z,36.60
2017-07-19T09:32:07.520Z,37.00
2017-07-19T10:37:55.646Z,36.00
2017-07-19T10:40:24.151Z,36.60
2017-07-19T10:42:52.618Z,36.60
2017-07-19T10:45:21.198Z,35.90
2017-07-19T10:47:49.702Z,36.70
2017-07-19T10:50:18.186Z,36.90
2017-07-19T10:52:46.707Z,37.30
2017-07-19T10:55:15.211Z,36.90
2017-07-19T10:57:43.665Z,37.00
2017-07-19T11:00:12.254Z,37.70
2017-07-19T11:02:40.742Z,37.10
2017-07-19T11:05:09.176Z,36.80
2017-07-19T11:07:37.639Z,36.90
2017-07-19T11:10:06.107Z,37.00
2017-07-19T11:12:34.622Z,37.10
2017-07-19T11:15:03.118Z,37.30
2017-07-19T11:17:31.596Z,36.80
2017-07-19T11:20:00.057Z,36.40
2017-07-19T11:22:28.595Z,36.00
2017-07-19T11:24:57.090Z,35.60
2017-07-19T11:27:25.506Z,35.50
2017-07-19T11:29:54.721Z,36.20
2017-07-19T11:32:23.138Z,36.20
2017-07-19T11:34:51.594Z,36.50
2017-07-19T11:37:20.043Z,37.10
2017-07-19T11:39:48.462Z,36.40
2017-07-19T11:42:16.869Z,36.10
2017-07-19T11:44:45.339Z,35.60
2017-07-19T11:47:13.754Z,36.00
2017-07-19T11:49:42.159Z,36.20
2017-07-19T11:52:11.444Z,37.10
2017-07-19T11:54:40.550Z,37.00
2017-07-19T11:57:08.666Z,36.90
2017-07-19T11:59:37.141Z,36.00
2017-07-19T12:02:05.578Z,35.90
2017-07-19T12:04:33.985Z,35.30
2017-07-19T12:07:03.191Z,34.10
2017-07-19T12:09:31.822Z,34.10
2017-07-19T12:12:00.233Z,34.20
2017-07-19T12:14:28.754Z,33.60
2017-07-19T12:16:57.195Z,33.40
2017-07-19T12:19:25.614Z,32.90
2017-07-19T12:21:54.034Z,32.40
2017-07-19T12:24:22.450Z,32.10
2017-07-19T12:26:50.863Z,32.00
2017-07-19T12:29:19.325Z,32.20
2017-07-19T12:31:47.740Z,32.20
2017-07-19T12:34:16.186Z,32.30
2017-07-19T12:36:44.614Z,32.00
2017-07-19T12:39:13.059Z,31.70
2017-07-19T12:41:41.494Z,31.20
2017-07-19T12:44:10.581Z,30.80
2017-07-19T12:46:39.000Z,30.50
2017-07-19T12:49:07.438Z,29.80
2017-07-19T12:51:35.882Z,29.40
2017-07-19T12:54:07.508Z,28.70
2017-07-19T12:56:35.951Z,28.70
2017-07-19T12:59:07.154Z,28.60
2017-07-19T13:01:35.550Z,28.80
2017-07-19T13:04:03.969Z,28.70
2017-07-19T13:06:32.366Z,28.60
2017-07-19T13:09:00.797Z,28.40
2017-07-19T13:11:29.878Z,28.20
2017-07-19T13:13:58.272Z,27.90
2017-07-19T13:16:26.672Z,28.00
2017-07-19T13:18:55.105Z,27.90
2017-07-19T13:21:23.496Z,27.90
2017-07-19T13:23:51.899Z,27.80
2017-07-19T13:26:20.313Z,27.70
2017-07-19T13:28:48.713Z,27.60
2017-07-19T13:31:17.117Z,27.40
2017-07-19T13:33:45.538Z,27.40
2017-07-19T13:36:13.951Z,27.40
2017-07-19T13:38:42.348Z,27.30
2017-07-19T13:41:10.769Z,27.30
2017-07-19T13:43:46.105Z,27.30
2017-07-19T13:46:14.518Z,27.40
2017-07-19T13:48:42.926Z,27.40
2017-07-19T13:51:11.333Z,27.20
2017-07-19T13:53:39.749Z,27.30
2017-07-19T13:56:08.138Z,27.20
2017-07-19T13:58:36.549Z,27.00
2017-07-19T14:01:04.975Z,27.30
2017-07-19T14:03:33.384Z,27.50
2017-07-19T14:06:01.805Z,27.50
2017-07-19T14:08:30.209Z,27.70
2017-07-19T14:10:58.606Z,27.80
2017-07-19T14:13:27.005Z,28.00
2017-07-19T14:15:55.452Z,28.40
2017-07-19T14:18:23.866Z,29.20
2017-07-19T14:20:52.264Z,29.30
2017-07-19T14:23:20.689Z,29.40
2017-07-19T14:28:21.306Z,30.60
2017-07-19T14:30:49.720Z,30.10
2017-07-19T14:33:18.117Z,29.90
2017-07-19T14:35:46.518Z,29.70
2017-07-19T14:38:15.041Z,29.90
2017-07-19T14:40:43.449Z,30.10
2017-07-19T14:43:11.918Z,30.20
2017-07-19T14:45:40.413Z,30.80
2017-07-19T14:48:08.841Z,30.70
2017-07-19T14:50:37.266Z,30.20
2017-07-19T14:53:06.802Z,31.30
2017-07-19T14:55:38.148Z,31.20
2017-07-19T14:58:22.402Z,31.20
2017-07-19T15:00:50.804Z,30.90
2017-07-19T15:03:19.197Z,30.70
2017-07-19T15:05:47.626Z,30.40
2017-07-19T15:08:16.045Z,30.10
2017-07-19T15:10:44.455Z,29.90
2017-07-19T15:13:12.889Z,29.70
2017-07-19T15:15:41.305Z,29.50
2017-07-19T15:18:09.739Z,29.20
2017-07-19T15:20:38.151Z,29.10
2017-07-19T15:23:06.614Z,28.80
2017-07-19T15:25:35.018Z,28.60
2017-07-19T15:28:03.460Z,28.40
2017-07-19T15:30:32.571Z,28.00
2017-07-19T15:33:00.985Z,27.40
2017-07-19T15:35:29.413Z,27.00
2017-07-19T15:37:57.838Z,26.60
2017-07-19T15:40:26.297Z,26.30
2017-07-19T15:42:54.727Z,26.00
2017-07-19T15:45:23.152Z,25.80
2017-07-19T15:47:51.586Z,25.50
2017-07-19T15:50:20.108Z,25.40
2017-07-19T15:52:48.578Z,25.30
2017-07-19T15:55:16.973Z,25.10
2017-07-19T15:57:45.392Z,25.10
2017-07-19T16:00:13.805Z,25.10
2017-07-19T16:02:42.200Z,25.00
2017-07-19T16:05:10.601Z,24.80
2017-07-19T16:07:39.025Z,24.70
2017-07-19T16:10:07.425Z,24.60
2017-07-19T16:12:35.824Z,24.40
2017-07-19T16:15:04.366Z,24.30
2017-07-19T16:17:32.855Z,24.20
2017-07-19T16:20:01.325Z,24.20
2017-07-19T16:22:29.913Z,24.10
2017-07-19T16:24:58.349Z,24.10
2017-07-19T16:27:26.763Z,24.10
2017-07-19T16:29:55.185Z,24.00
2017-07-19T16:32:23.594Z,23.90
2017-07-19T16:34:52.786Z,23.80
2017-07-19T16:37:21.222Z,23.70
2017-07-19T16:39:49.650Z,23.80
2017-07-19T16:42:18.046Z,23.70
2017-07-19T16:44:46.466Z,23.70
2017-07-19T16:47:14.866Z,23.60
2017-07-19T16:49:43.272Z,23.50
2017-07-19T16:52:11.701Z,23.30
2017-07-19T16:54:40.102Z,23.20
2017-07-19T16:57:08.497Z,23.00
2017-07-19T16:59:36.990Z,22.90
2017-07-19T17:02:05.474Z,22.80
2017-07-19T17:04:33.877Z,22.70
2017-07-19T17:07:02.376Z,22.70
2017-07-19T17:09:30.785Z,22.70
2017-07-19T17:11:59.197Z,22.70
2017-07-19T17:14:27.618Z,22.60
2017-07-19T17:16:56.023Z,22.60
2017-07-19T17:19:24.475Z,22.60
2017-07-19T17:21:52.889Z,22.60
2017-07-19T17:24:21.318Z,22.60
2017-07-19T17:26:49.741Z,22.60
2017-07-19T17:29:18.186Z,22.60
2017-07-19T17:31:46.603Z,22.70
2017-07-19T17:34:15.046Z,22.80
2017-07-19T17:36:43.450Z,22.90
2017-07-19T17:39:11.846Z,22.90
2017-07-19T17:41:40.265Z,22.90
2017-07-19T17:44:08.665Z,22.90
2017-07-19T17:46:37.071Z,22.90
2017-07-19T17:49:05.479Z,22.80
2017-07-19T17:51:33.898Z,22.70
2017-07-19T17:54:02.301Z,22.80
2017-07-19T17:56:31.487Z,23.00
2017-07-19T17:59:00.557Z,22.90
2017-07-19T18:01:28.993Z,23.00
2017-07-19T18:03:57.444Z,23.10
2017-07-19T18:06:25.856Z,23.10
2017-07-19T18:08:54.253Z,23.00
2017-07-19T18:11:22.672Z,22.90
2017-07-19T18:13:51.078Z,23.00
2017-07-19T18:16:19.490Z,23.00
2017-07-19T18:18:47.918Z,22.90
2017-07-19T18:21:16.322Z,22.80
2017-07-19T18:23:44.725Z,22.70
2017-07-19T18:26:13.133Z,22.70
2017-07-19T18:28:41.537Z,22.70
2017-07-19T18:31:09.942Z,22.70
2017-07-19T18:33:38.569Z,22.60
2017-07-19T18:36:06.989Z,22.50
2017-07-19T18:38:35.414Z,22.50
2017-07-19T18:41:03.849Z,22.50
2017-07-19T18:43:32.248Z,22.40
2017-07-19T18:46:00.649Z,22.30
2017-07-19T18:48:29.063Z,22.20
2017-07-19T18:50:57.277Z,22.10
2017-07-19T18:53:25.714Z,22.00
2017-07-19T18:55:54.176Z,21.90
2017-07-19T18:58:22.585Z,21.80
2017-07-19T19:00:50.985Z,21.70
2017-07-19T19:03:19.498Z,21.50
2017-07-19T19:05:47.995Z,21.30
2017-07-19T19:08:16.459Z,21.20
2017-07-19T19:10:44.952Z,21.00
2017-07-19T19:13:13.395Z,20.80
2017-07-19T19:15:41.822Z,20.60
2017-07-19T19:18:10.290Z,20.50
2017-07-19T19:20:38.700Z,20.40
2017-07-19T19:23:07.094Z,20.20
2017-07-19T19:25:35.510Z,20.00
2017-07-19T19:28:03.904Z,19.90
2017-07-19T19:30:33.073Z,19.70
2017-07-19T19:33:01.505Z,19.70
2017-07-19T19:35:29.905Z,19.60
2017-07-19T19:37:58.397Z,19.50
2017-07-19T19:40:26.809Z,19.40
2017-07-19T19:42:55.438Z,19.30
2017-07-19T19:45:23.877Z,19.20
2017-07-19T19:47:52.294Z,19.10
2017-07-19T19:50:20.705Z,18.90
2017-07-19T19:52:49.104Z,18.80
2017-07-19T19:55:17.545Z,18.70
2017-07-19T19:57:45.951Z,18.60
2017-07-19T20:00:14.390Z,18.60
2017-07-19T20:02:44.684Z,18.50
2017-07-19T20:05:13.089Z,18.40
2017-07-19T20:07:43.106Z,18.50
2017-07-19T20:10:11.642Z,18.50
2017-07-19T20:12:40.138Z,18.40
2017-07-19T20:15:08.613Z,18.40
2017-07-19T20:17:37.166Z,18.40
2017-07-19T20:20:05.606Z,18.50
2017-07-19T20:22:34.010Z,18.70
2017-07-19T20:25:02.497Z,18.70
2017-07-19T20:27:30.960Z,18.70
2017-07-19T20:30:02.958Z,18.60
2017-07-19T20:32:31.401Z,18.40
2017-07-19T20:34:59.817Z,18.30
2017-07-19T20:37:28.237Z,18.40
2017-07-19T20:39:56.657Z,18.40
2017-07-19T20:42:25.654Z,18.20
2017-07-19T20:44:54.826Z,18.20
2017-07-19T20:47:23.296Z,18.20
2017-07-19T20:49:51.696Z,18.30
2017-07-19T20:52:20.085Z,18.50
2017-07-19T20:54:48.558Z,18.60
2017-07-19T20:57:16.960Z,18.70
2017-07-19T20:59:45.365Z,18.80
2017-07-19T21:02:13.802Z,18.90
2017-07-19T21:04:42.264Z,18.80
2017-07-19T21:07:10.670Z,18.80
2017-07-19T21:09:39.185Z,18.70
2017-07-19T21:12:07.619Z,18.70
2017-07-19T21:14:36.034Z,18.80
2017-07-19T21:17:04.577Z,19.00
2017-07-19T21:19:32.642Z,19.00
2017-07-19T21:22:01.049Z,19.10
2017-07-19T21:24:29.486Z,19.00
2017-07-19T21:26:57.900Z,19.00
2017-07-19T21:29:26.364Z,19.00
2017-07-19T21:31:54.856Z,19.00
2017-07-19T21:34:23.278Z,18.90
2017-07-19T21:37:07.410Z,18.90
2017-07-19T21:39:35.821Z,18.80
2017-07-19T21:42:04.228Z,18.70
2017-07-19T21:44:32.661Z,18.60
2017-07-19T21:47:01.081Z,18.50
2017-07-19T21:49:29.491Z,18.30
2017-07-19T21:51:57.924Z,18.20
2017-07-19T21:54:26.318Z,18.10
2017-07-19T21:56:54.716Z,18.20
2017-07-19T21:59:23.269Z,18.40
2017-07-19T22:01:53.014Z,18.30
2017-07-19T22:04:22.525Z,18.20
2017-07-19T22:06:50.941Z,18.10
2017-07-19T22:09:19.342Z,18.00
2017-07-19T22:11:47.750Z,18.10
2017-07-19T22:14:16.169Z,17.90
2017-07-19T22:16:44.571Z,17.70
2017-07-19T22:19:13.741Z,17.50
2017-07-19T22:21:42.850Z,17.50
2017-07-19T22:24:11.261Z,17.40
2017-07-19T22:26:39.668Z,17.50
2017-07-19T22:29:08.329Z,17.50
2017-07-19T22:31:36.757Z,17.50
2017-07-19T22:34:05.170Z,17.40
2017-07-19T22:36:33.590Z,17.40
2017-07-19T22:39:01.993Z,17.30
2017-07-19T22:41:31.078Z,17.40
2017-07-19T22:43:59.501Z,17.30
2017-07-19T22:46:27.711Z,17.20
2017-07-19T22:48:56.888Z,17.00
2017-07-19T22:51:25.021Z,17.00
2017-07-19T22:53:53.423Z,16.90
2017-07-19T22:56:21.828Z,16.80
2017-07-19T22:58:50.241Z,16.80
2017-07-19T23:01:18.648Z,16.70
2017-07-19T23:03:47.065Z,16.70
2017-07-19T23:06:15.481Z,16.60
2017-07-19T23:08:43.900Z,16.60
2017-07-19T23:11:12.314Z,16.60
2017-07-19T23:13:40.750Z,16.50
2017-07-19T23:16:17.078Z,16.40
2017-07-19T23:18:46.289Z,16.20
2017-07-19T23:21:14.685Z,16.20
2017-07-19T23:23:43.076Z,16.20
2017-07-19T23:26:11.505Z,16.20
2017-07-19T23:28:40.686Z,16.20
2017-07-19T23:31:09.090Z,16.10
2017-07-19T23:33:37.505Z,16.20
2017-07-19T23:36:05.901Z,16.50
2017-07-19T23:38:34.309Z,16.50
2017-07-19T23:41:03.262Z,16.60
2017-07-19T23:43:31.656Z,16.70
2017-07-19T23:46:00.057Z,16.80
2017-07-19T23:48:28.478Z,16.80
2017-07-19T23:50:56.900Z,16.80
2017-07-19T23:53:25.381Z,17.10
2017-07-19T23:55:53.785Z,17.20
2017-07-19T23:58:22.393Z,17.20
